Time;durP1;ratioP1;P1;durP2;ratioP2;P2;SDS_P1;SDS_P2;PMS_P1;PMS_P2;Temp;Humidity;BMP_temperature;BMP_pressure;BME280_temperature;BME280_humidity;BME280_pressure;Samples;Min_cycle;Max_cycle;Signal;HPM_P1;HPM_P2
2022/07/11 00:00:14;;;;;;;3.60;1.20;;;;;;;16.20;62.66;100667.98;105562;1270;61250;-76
2022/07/11 00:03:02;;;;;;;3.60;1.40;;;;;;;16.16;62.49;100670.48;105600;1273;63076;-78
2022/07/11 00:05:31;;;;;;;4.00;1.30;;;;;;;16.14;62.35;100669.10;105566;1270;73095;-74
2022/07/11 00:08:00;;;;;;;2.50;1.20;;;;;;;16.10;62.29;100664.71;105553;1270;71728;-74
2022/07/11 00:10:28;;;;;;;2.40;1.10;;;;;;;16.06;62.33;100666.21;105540;1270;71162;-77
2022/07/11 00:12:57;;;;;;;2.30;1.20;;;;;;;15.99;62.73;100663.50;105474;1270;72092;-76
2022/07/11 00:15:26;;;;;;;5.70;1.30;;;;;;;15.95;62.83;100661.14;105046;1270;644089;-77
2022/07/11 00:17:55;;;;;;;2.60;1.20;;;;;;;15.93;62.80;100660.24;105583;1270;59549;-79
2022/07/11 00:20:24;;;;;;;2.10;1.30;;;;;;;15.88;63.16;100657.73;105537;1270;72942;-77
2022/07/11 00:22:52;;;;;;;1.50;1.10;;;;;;;15.84;63.30;100654.76;105550;1270;72087;-76
2022/07/11 00:25:21;;;;;;;2.20;1.00;;;;;;;15.85;63.01;100657.11;105641;1270;69091;-79
2022/07/11 00:27:50;;;;;;;3.40;1.20;;;;;;;15.85;63.27;100655.23;105652;1270;73492;-78
2022/07/11 00:30:19;;;;;;;1.30;1.10;;;;;;;15.82;63.33;100656.38;105746;1270;61406;-77
2022/07/11 00:32:48;;;;;;;3.00;1.20;;;;;;;15.82;63.29;100655.83;105611;1270;61368;-77
2022/07/11 00:35:16;;;;;;;1.50;1.00;;;;;;;15.81;63.33;100658.73;105615;1270;75162;-78
2022/07/11 00:37:45;;;;;;;2.10;1.00;;;;;;;15.83;63.37;100657.52;105594;1270;70437;-77
2022/07/11 00:40:14;;;;;;;3.10;1.00;;;;;;;15.85;63.44;100660.33;105766;1270;68832;-79
2022/07/11 00:42:42;;;;;;;4.00;1.50;;;;;;;15.90;63.42;100666.14;105488;1272;73129;-76
2022/07/11 00:45:11;;;;;;;2.50;1.10;;;;;;;15.92;63.32;100669.61;105552;1270;59582;-76
2022/07/11 00:47:40;;;;;;;2.50;1.40;;;;;;;15.95;63.23;100669.89;105565;1270;60008;-74
2022/07/11 00:50:09;;;;;;;3.40;1.00;;;;;;;15.95;63.15;100667.11;105375;1273;73881;-75
2022/07/11 00:52:39;;;;;;;2.50;1.00;;;;;;;15.97;63.11;100670.33;105595;1270;72838;-74
2022/07/11 00:55:10;;;;;;;2.50;1.20;;;;;;;15.98;63.10;100668.00;105513;1270;69778;-75
2022/07/11 00:57:40;;;;;;;2.60;1.10;;;;;;;15.99;63.41;100668.08;105541;1270;72163;-76
2022/07/11 01:00:10;;;;;;;3.30;1.20;;;;;;;16.00;63.62;100666.25;105545;1270;62250;-76
2022/07/11 01:02:39;;;;;;;2.30;1.20;;;;;;;15.99;63.58;100667.72;105624;1273;59146;-76
2022/07/11 01:05:09;;;;;;;1.90;1.10;;;;;;;15.99;63.48;100669.66;105657;1273;74037;-78
2022/07/11 01:07:38;;;;;;;2.50;1.30;;;;;;;15.99;63.65;100669.13;105605;1272;72248;-77
2022/07/11 01:10:08;;;;;;;2.60;1.30;;;;;;;16.00;63.90;100664.96;105677;1273;68814;-77
2022/07/11 01:12:36;;;;;;;2.60;1.00;;;;;;;16.00;63.93;100663.19;105681;1273;73274;-78
2022/07/11 01:15:07;;;;;;;3.40;1.20;;;;;;;15.99;63.96;100664.06;105561;1273;59631;-76
2022/07/11 01:17:36;;;;;;;2.90;1.30;;;;;;;15.99;64.09;100663.89;105507;1273;58934;-77
2022/07/11 01:20:06;;;;;;;1.30;1.00;;;;;;;15.97;64.12;100665.78;105493;1272;74691;-82
2022/07/11 01:22:52;;;;;;;2.10;1.20;;;;;;;15.96;64.55;100665.55;105405;1273;72659;-77
2022/07/11 01:25:31;;;;;;;1.50;1.10;;;;;;;15.95;64.28;100664.25;105445;1273;70061;-78
2022/07/11 01:28:08;;;;;;;2.60;1.60;;;;;;;15.94;64.35;100661.33;105374;1273;72041;-77
2022/07/11 01:30:38;;;;;;;2.90;0.90;;;;;;;15.87;65.01;100663.82;105503;1272;61050;-77
2022/07/11 01:33:06;;;;;;;2.60;1.40;;;;;;;15.87;65.14;100664.34;105473;1273;61812;-78
2022/07/11 01:35:35;;;;;;;3.30;1.30;;;;;;;15.77;65.59;100667.17;105518;1273;72655;-77
2022/07/11 01:38:04;;;;;;;3.10;1.30;;;;;;;15.78;65.45;100664.68;105474;1272;72480;-75
2022/07/11 01:40:33;;;;;;;2.30;1.20;;;;;;;15.77;65.43;100669.52;105492;1273;68383;-75
2022/07/11 01:43:02;;;;;;;2.90;1.20;;;;;;;15.72;66.29;100670.54;105444;1270;74196;-76
2022/07/11 01:45:30;;;;;;;2.40;1.40;;;;;;;15.73;65.95;100669.37;105422;1270;61220;-76
2022/07/11 01:47:59;;;;;;;2.80;1.40;;;;;;;15.70;66.32;100675.23;105478;1272;59687;-76
2022/07/11 01:50:28;;;;;;;1.90;1.20;;;;;;;15.65;66.40;100672.56;106030;1271;73846;-75
2022/07/11 01:52:56;;;;;;;2.50;1.40;;;;;;;15.66;66.35;100674.07;106040;1273;72346;-77
2022/07/11 01:55:25;;;;;;;4.20;1.40;;;;;;;15.62;66.74;100674.05;105550;1270;68894;-77
2022/07/11 01:57:54;;;;;;;2.50;1.20;;;;;;;15.56;67.29;100676.90;105617;1270;74087;-76
2022/07/11 02:00:22;;;;;;;3.50;1.30;;;;;;;15.56;67.38;100673.36;105692;1273;60966;-77
2022/07/11 02:02:51;;;;;;;3.10;1.30;;;;;;;15.50;67.25;100670.12;105600;1273;60059;-75
2022/07/11 02:05:20;;;;;;;5.00;1.60;;;;;;;15.45;67.59;100676.13;105659;1272;72653;-79
2022/07/11 02:10:36;;;;;;;1.60;1.30;;;;;;;15.38;67.61;100676.44;105550;1272;69441;-78
2022/07/11 02:13:05;;;;;;;3.20;1.40;;;;;;;15.35;68.02;100672.65;105474;1273;71333;-77
2022/07/11 02:15:34;;;;;;;2.30;1.40;;;;;;;15.36;67.78;100672.95;105557;1272;59695;-78
2022/07/11 02:18:03;;;;;;;3.40;1.20;;;;;;;15.30;68.03;100672.42;105628;1270;61519;-79
2022/07/11 02:20:32;;;;;;;1.80;1.40;;;;;;;15.26;68.07;100673.70;105657;1273;73192;-78
2022/07/11 02:23:01;;;;;;;3.00;1.60;;;;;;;15.24;68.22;100680.20;105620;1272;70505;-79
2022/07/11 02:25:30;;;;;;;4.70;1.90;;;;;;;15.23;68.55;100678.22;105642;1273;68891;-78
2022/07/11 02:27:59;;;;;;;5.80;1.60;;;;;;;15.18;68.75;100682.33;105538;1273;72149;-77
2022/07/11 02:30:28;;;;;;;5.20;1.60;;;;;;;15.18;68.86;100681.69;105581;1273;61447;-77
2022/07/11 02:32:57;;;;;;;2.10;1.30;;;;;;;15.14;68.80;100684.80;105635;1273;59423;-75
2022/07/11 02:35:26;;;;;;;2.90;1.40;;;;;;;15.12;69.05;100685.88;105553;1272;74257;-76
2022/07/11 02:37:54;;;;;;;3.20;1.60;;;;;;;15.12;68.98;100685.72;105559;1272;72082;-76
2022/07/11 02:40:23;;;;;;;3.20;1.70;;;;;;;15.10;69.04;100684.47;105530;1273;68133;-78
2022/07/11 02:42:53;;;;;;;1.70;1.40;;;;;;;15.10;69.15;100688.55;105502;1271;73553;-77
2022/07/11 02:45:22;;;;;;;3.60;1.50;;;;;;;15.08;68.93;100691.52;105489;1273;62979;-77
2022/07/11 02:47:51;;;;;;;1.90;1.50;;;;;;;15.08;68.95;100690.95;105437;1273;60749;-77
2022/07/11 02:50:20;;;;;;;4.50;1.70;;;;;;;15.09;68.98;100690.54;105489;1273;73881;-78
2022/07/11 02:52:48;;;;;;;4.80;1.80;;;;;;;15.07;69.04;100700.17;105556;1273;70276;-77
2022/07/11 02:55:17;;;;;;;2.90;1.70;;;;;;;15.07;68.72;100697.92;105662;1272;68126;-80
2022/07/11 02:57:46;;;;;;;4.50;2.00;;;;;;;15.06;68.95;100696.80;105636;1273;73306;-78
2022/07/11 03:00:17;;;;;;;4.80;1.70;;;;;;;15.03;68.91;100698.60;105612;1271;62555;-78
2022/07/11 03:02:46;;;;;;;3.80;1.50;;;;;;;15.01;69.07;100701.06;105576;1272;58889;-76
2022/07/11 03:05:15;;;;;;;2.80;1.60;;;;;;;15.01;68.91;100702.50;105528;1273;72968;-75
2022/07/11 03:07:44;;;;;;;3.00;1.50;;;;;;;15.01;68.84;100707.63;105529;1270;70706;-77
2022/07/11 03:10:13;;;;;;;4.70;1.80;;;;;;;15.03;68.76;100704.91;105572;1271;71154;-79
2022/07/11 03:12:42;;;;;;;4.80;1.80;;;;;;;15.05;68.54;100712.31;105728;1270;74588;-77
2022/07/11 03:15:11;;;;;;;3.70;1.70;;;;;;;15.04;68.47;100706.96;105605;1270;61541;-82
2022/07/11 03:17:39;;;;;;;4.00;1.80;;;;;;;15.05;68.36;100706.83;105739;1270;61484;-79
2022/07/11 03:20:10;;;;;;;2.20;1.60;;;;;;;15.06;68.44;100707.82;105749;1270;73282;-79
2022/07/11 03:22:38;;;;;;;3.00;1.70;;;;;;;15.05;68.37;100707.05;105759;1270;72419;-81
2022/07/11 03:25:08;;;;;;;3.60;1.80;;;;;;;15.07;68.27;100706.65;105736;1270;69330;-80
2022/07/11 03:27:37;;;;;;;4.60;1.70;;;;;;;15.07;68.47;100706.34;105799;1273;74146;-78
2022/07/11 03:30:06;;;;;;;7.30;2.40;;;;;;;15.10;68.15;100709.20;106175;1270;60874;-78
2022/07/11 03:32:35;;;;;;;5.90;1.80;;;;;;;15.09;68.11;100707.36;106026;1271;59451;-80
2022/07/11 03:37:53;;;;;;;4.30;1.90;;;;;;;15.09;68.20;100704.16;105987;1270;71821;-80
2022/07/11 03:40:21;;;;;;;3.90;1.90;;;;;;;15.10;68.42;100709.73;105814;1270;70726;-78
2022/07/11 03:42:51;;;;;;;3.30;1.60;;;;;;;15.13;68.22;100708.23;105835;1270;72691;-77
2022/07/11 03:45:20;;;;;;;2.50;1.60;;;;;;;15.22;67.93;100708.85;105613;1270;59706;-79
2022/07/11 03:47:49;;;;;;;4.60;1.80;;;;;;;15.27;67.65;100709.73;105728;1270;61457;-77
2022/07/11 03:50:17;;;;;;;4.70;1.90;;;;;;;15.30;67.51;100714.35;105657;1273;75267;-80
2022/07/11 03:52:46;;;;;;;5.00;2.20;;;;;;;15.38;67.33;100711.70;105697;1270;70283;-82
2022/07/11 03:55:15;;;;;;;7.60;1.80;;;;;;;15.45;67.04;100713.90;105646;1271;69844;-82
2022/07/11 03:57:43;;;;;;;12.20;2.20;;;;;;;15.53;66.91;100712.08;105742;1269;73966;-79
2022/07/11 04:00:13;;;;;;;4.00;1.70;;;;;;;15.60;66.55;100708.75;105743;1270;59678;-85
2022/07/11 04:02:43;;;;;;;2.90;1.60;;;;;;;15.68;66.40;100708.11;105961;1273;60113;-82
2022/07/11 04:05:11;;;;;;;3.60;2.10;;;;;;;15.73;66.38;100704.29;105794;1270;74163;-79
2022/07/11 04:07:41;;;;;;;6.90;1.80;;;;;;;15.78;66.11;100708.52;105737;1270;69282;-81
2022/07/11 04:10:10;;;;;;;4.10;2.10;;;;;;;15.88;65.80;100711.30;105758;1270;70749;-81
2022/07/11 04:12:40;;;;;;;8.10;2.10;;;;;;;15.92;65.76;100711.40;105755;1270;72206;-80
2022/07/11 04:15:11;;;;;;;7.70;2.00;;;;;;;15.99;65.62;100711.84;105789;1270;60726;-82
2022/07/11 04:17:40;;;;;;;5.70;1.80;;;;;;;16.06;65.21;100712.59;105756;1270;61171;-78
2022/07/11 04:20:09;;;;;;;4.80;1.60;;;;;;;16.12;64.89;100711.23;105431;1273;73321;-81
2022/07/11 04:22:38;;;;;;;6.50;1.60;;;;;;;16.22;64.74;100715.96;105743;1270;72458;-79
2022/07/11 04:25:08;;;;;;;3.00;1.60;;;;;;;16.31;64.41;100720.71;105778;1271;68564;-81
2022/07/11 04:27:37;;;;;;;5.00;1.60;;;;;;;16.40;64.22;100728.57;105747;1270;72169;-80
2022/07/11 04:30:09;;;;;;;4.40;1.80;;;;;;;16.45;63.67;100731.46;105704;1270;61221;-78
2022/07/11 04:32:38;;;;;;;6.20;1.80;;;;;;;16.49;63.69;100727.64;105657;1270;61488;-79
2022/07/11 04:35:07;;;;;;;7.80;2.20;;;;;;;16.56;63.60;100725.17;105749;1270;74116;-82
2022/07/11 04:37:36;;;;;;;5.10;2.20;;;;;;;16.67;63.11;100732.85;105719;1270;70147;-82
2022/07/11 04:40:06;;;;;;;4.20;1.70;;;;;;;16.75;62.51;100731.40;105641;1270;70786;-80
2022/07/11 04:42:41;;;;;;;6.70;2.30;;;;;;;16.77;62.56;100726.97;105577;1270;73287;-80
2022/07/11 04:45:10;;;;;;;7.30;1.90;;;;;;;16.91;62.19;100726.45;105659;1270;61274;-79
2022/07/11 04:47:39;;;;;;;6.40;1.80;;;;;;;17.06;61.54;100735.73;105649;1270;59667;-80
2022/07/11 04:50:09;;;;;;;4.00;1.80;;;;;;;17.21;60.84;100736.65;105654;1270;75038;-80
2022/07/11 04:52:38;;;;;;;4.70;1.80;;;;;;;17.27;60.71;100733.77;105571;1273;72329;-81
2022/07/11 04:55:07;;;;;;;6.10;1.90;;;;;;;17.37;60.29;100739.10;105597;1273;71461;-80
2022/07/11 04:57:36;;;;;;;4.70;1.60;;;;;;;17.50;60.22;100743.95;105556;1272;73466;-80
2022/07/11 05:00:07;;;;;;;3.20;1.70;;;;;;;17.59;59.54;100750.29;105518;1272;60251;-79
2022/07/11 05:02:37;;;;;;;3.20;1.70;;;;;;;17.62;59.42;100753.31;105769;1272;58963;-80
2022/07/11 05:05:07;;;;;;;4.50;1.50;;;;;;;17.75;58.79;100757.52;105579;1270;74688;-81
2022/07/11 05:07:36;;;;;;;4.80;1.70;;;;;;;17.78;58.72;100751.16;105746;1270;69251;-81
2022/07/11 05:10:07;;;;;;;1.80;1.60;;;;;;;17.90;58.52;100749.11;105764;1273;67897;-83
2022/07/11 05:12:36;;;;;;;3.70;1.80;;;;;;;17.88;58.31;100760.20;105674;1273;72133;-78
2022/07/11 05:15:06;;;;;;;7.40;1.60;;;;;;;17.87;58.15;100746.35;105461;1270;60683;-77
2022/07/11 05:17:35;;;;;;;3.00;1.50;;;;;;;17.69;58.41;100764.42;105617;1272;60233;-76
2022/07/11 05:20:05;;;;;;;4.50;1.90;;;;;;;17.67;58.54;100772.34;105739;1270;71884;-77
2022/07/11 05:22:34;;;;;;;5.10;2.00;;;;;;;17.69;58.22;100767.89;105645;1270;73358;-77
2022/07/11 05:25:04;;;;;;;4.40;1.70;;;;;;;17.74;58.43;100770.31;105558;1273;69392;-75
2022/07/11 05:27:33;;;;;;;5.50;1.70;;;;;;;17.73;58.31;100773.88;105480;1271;73104;-76
2022/07/11 05:30:01;;;;;;;6.00;1.80;;;;;;;17.84;57.95;100767.48;105648;1270;59669;-82
2022/07/11 05:32:33;;;;;;;6.70;2.30;;;;;;;17.81;57.91;100763.90;106070;1270;58355;-82
2022/07/11 05:35:05;;;;;;;3.30;1.70;;;;;;;17.87;58.04;100768.25;105778;1270;73877;-83
2022/07/11 05:37:34;;;;;;;5.00;1.90;;;;;;;17.77;57.77;100766.61;105812;1270;72139;-79
2022/07/11 05:40:03;;;;;;;4.50;1.90;;;;;;;17.78;58.16;100766.06;106499;1270;70408;-85
2022/07/11 05:42:34;;;;;;;7.30;1.80;;;;;;;17.79;58.03;100769.60;106730;1270;73070;-79
2022/07/11 05:45:03;;;;;;;5.10;2.00;;;;;;;17.90;57.67;100767.60;106041;1270;60752;-85
2022/07/11 05:47:31;;;;;;;4.40;1.80;;;;;;;17.93;57.31;100768.88;105821;1270;60869;-79
2022/07/11 05:50:00;;;;;;;7.60;2.10;;;;;;;17.86;57.32;100780.48;105724;1270;72372;-78
2022/07/11 05:52:29;;;;;;;5.90;2.20;;;;;;;17.81;57.46;100773.11;105829;1270;72232;-78
2022/07/11 05:54:58;;;;;;;8.80;2.20;;;;;;;17.80;57.61;100774.07;105636;1270;71333;-77
2022/07/11 05:57:27;;;;;;;5.30;2.20;;;;;;;17.85;57.68;100772.14;105729;1270;71918;-78
2022/07/11 05:59:56;;;;;;;3.80;2.20;;;;;;;17.97;57.28;100775.52;105798;1270;59667;-78
2022/07/11 06:02:25;;;;;;;6.90;2.30;;;;;;;17.98;57.06;100776.48;105707;1270;60219;-79
2022/07/11 06:04:53;;;;;;;4.40;1.90;;;;;;;17.96;57.00;100775.73;105669;1270;74285;-77
2022/07/11 06:10:09;;;;;;;6.40;2.20;;;;;;;18.08;56.60;100777.48;105687;1270;61735;-76
2022/07/11 06:12:38;;;;;;;9.30;2.10;;;;;;;18.11;56.46;100781.67;105791;1270;63763;-80
2022/07/11 06:15:07;;;;;;;5.10;2.10;;;;;;;18.18;56.07;100789.92;105672;1270;60723;-80
2022/07/11 06:17:36;;;;;;;4.00;2.00;;;;;;;18.15;55.83;100786.45;105938;1270;59561;-79
2022/07/11 06:20:06;;;;;;;5.40;2.30;;;;;;;18.01;55.94;100788.30;105814;1270;72784;-79
2022/07/11 06:22:35;;;;;;;7.50;2.20;;;;;;;18.07;55.92;100790.33;105957;1270;69762;-80
2022/07/11 06:25:04;;;;;;;4.10;2.10;;;;;;;18.23;55.64;100793.09;105869;1270;69974;-79
2022/07/11 06:27:33;;;;;;;7.80;2.30;;;;;;;18.40;55.00;100806.45;105810;1270;63645;-80
2022/07/11 06:30:03;;;;;;;6.60;2.10;;;;;;;18.45;54.37;100800.88;105683;1270;61936;-79
2022/07/11 06:32:32;;;;;;;4.10;1.80;;;;;;;18.51;54.18;100797.77;105819;1271;58052;-81
2022/07/11 06:35:01;;;;;;;6.60;2.00;;;;;;;18.52;53.84;100805.60;105747;1272;63948;-80
2022/07/11 06:37:30;;;;;;;5.70;2.00;;;;;;;18.61;53.83;100799.34;105635;1270;71715;-79
2022/07/11 06:39:59;;;;;;;4.20;1.60;;;;;;;18.81;53.39;100797.45;105726;1270;71136;-79
2022/07/11 06:42:28;;;;;;;7.20;1.70;;;;;;;18.92;52.12;100808.83;105732;1270;63013;-80
2022/07/11 06:44:57;;;;;;;5.10;1.60;;;;;;;18.90;51.36;100802.54;105752;1270;60058;-78
2022/07/11 06:47:26;;;;;;;4.60;1.60;;;;;;;18.78;51.41;100810.73;105964;1270;60844;-79
2022/07/11 06:49:56;;;;;;;2.80;1.70;;;;;;;18.83;51.38;100796.50;106231;1270;73928;-79
2022/07/11 06:52:24;;;;;;;5.60;1.60;;;;;;;18.86;51.53;100798.35;105910;1270;72284;-80
2022/07/11 06:54:53;;;;;;;7.40;1.80;;;;;;;19.15;51.54;100793.91;105724;1270;60489;-79
2022/07/11 06:57:22;;;;;;;2.70;1.30;;;;;;;19.45;50.66;100791.21;105768;1273;62479;-78
2022/07/11 06:59:51;;;;;;;6.00;1.80;;;;;;;19.52;50.02;100800.94;105755;1270;60451;-78
2022/07/11 07:02:19;;;;;;;3.70;1.30;;;;;;;19.44;49.53;100799.20;105845;1270;59576;-80
2022/07/11 07:04:48;;;;;;;3.60;1.40;;;;;;;19.31;49.59;100798.73;105714;1273;63814;-80
2022/07/11 07:07:17;;;;;;;3.80;1.30;;;;;;;19.32;49.74;100802.89;105731;1270;70752;-79
2022/07/11 07:09:50;;;;;;;2.60;1.20;;;;;;;19.39;49.02;100797.70;105900;1270;71360;-79
2022/07/11 07:12:19;;;;;;;5.80;1.50;;;;;;;19.41;48.38;100810.98;105872;1270;63061;-81
2022/07/11 07:14:49;;;;;;;4.60;1.30;;;;;;;19.46;47.90;100801.80;105879;1269;59671;-78
2022/07/11 07:17:18;;;;;;;5.20;1.40;;;;;;;19.46;47.94;100781.44;105868;1270;61442;-78
2022/07/11 07:19:47;;;;;;;2.40;1.60;;;;;;;19.66;47.75;100777.83;105781;1270;63611;-81
2022/07/11 07:22:16;;;;;;;4.80;1.50;;;;;;;19.91;46.16;100788.69;105684;1270;72469;-79
2022/07/11 07:24:45;;;;;;;3.20;1.30;;;;;;;19.91;45.92;100787.86;105687;1270;70141;-77
2022/07/11 07:27:14;;;;;;;4.60;1.20;;;;;;;19.89;45.91;100792.00;105644;1270;74648;-79
2022/07/11 07:29:42;;;;;;;7.80;1.30;;;;;;;19.83;45.95;100792.82;105663;1270;61820;-80
2022/07/11 07:32:11;;;;;;;6.30;1.50;;;;;;;19.76;46.43;100792.63;105810;1270;58534;-78
2022/07/11 07:34:40;;;;;;;3.00;1.30;;;;;;;19.95;46.25;100798.02;105845;1270;63185;-77
2022/07/11 07:37:09;;;;;;;3.00;1.30;;;;;;;20.04;45.72;100804.73;105660;1273;61759;-78
2022/07/11 07:39:38;;;;;;;4.40;1.20;;;;;;;20.13;46.00;100792.11;105811;1270;60027;-78
2022/07/11 07:42:07;;;;;;;4.10;1.20;;;;;;;20.21;45.66;100808.48;105651;1270;62629;-78
2022/07/11 07:44:36;;;;;;;7.50;2.40;;;;;;;20.15;45.76;100788.02;105780;1270;60821;-78
2022/07/11 07:47:04;;;;;;;3.50;1.50;;;;;;;20.15;46.24;100782.48;105759;1270;60521;-80
2022/07/11 07:49:33;;;;;;;9.10;1.60;;;;;;;20.15;45.83;100778.63;105800;1273;64903;-78
2022/07/11 07:52:02;;;;;;;9.30;1.40;;;;;;;20.09;45.70;100787.75;105996;1270;70285;-78
2022/07/11 07:54:31;;;;;;;7.40;1.30;;;;;;;20.09;45.42;100792.30;105888;1270;61031;-79
2022/07/11 07:57:00;;;;;;;4.40;1.50;;;;;;;20.02;45.84;100789.46;105803;1270;73175;-79
2022/07/11 07:59:28;;;;;;;3.10;1.10;;;;;;;20.06;45.79;100796.20;105771;1270;59649;-79
2022/07/11 08:01:58;;;;;;;3.70;1.20;;;;;;;20.15;44.77;100786.92;105733;1270;59887;-78
2022/07/11 08:04:28;;;;;;;5.80;1.20;;;;;;;20.32;44.30;100782.35;105803;1270;72928;-79
2022/07/11 08:06:59;;;;;;;10.00;1.60;;;;;;;20.45;44.40;100792.95;105821;1270;72760;-78
2022/07/11 08:09:28;;;;;;;9.00;1.40;;;;;;;20.43;44.37;100784.21;105803;1270;59567;-77
2022/07/11 08:11:57;;;;;;;3.70;1.30;;;;;;;20.46;44.70;100780.81;105831;1270;62992;-79
2022/07/11 08:14:27;;;;;;;4.70;1.20;;;;;;;20.38;45.17;100782.36;105693;1270;58014;-80
2022/07/11 08:16:55;;;;;;;3.50;1.20;;;;;;;20.52;44.68;100784.37;105825;1270;58593;-77
2022/07/11 08:19:24;;;;;;;4.90;1.20;;;;;;;20.51;44.34;100781.25;105811;1269;64712;-78
2022/07/11 08:21:53;;;;;;;3.20;1.60;;;;;;;20.45;44.47;100779.92;105841;1270;71561;-79
2022/07/11 08:24:21;;;;;;;4.50;1.10;;;;;;;20.44;44.38;100786.81;105877;1270;60926;-78
2022/07/11 08:26:50;;;;;;;4.20;1.10;;;;;;;20.61;44.32;100786.38;105812;1270;62598;-80
2022/07/11 08:29:19;;;;;;;6.10;1.30;;;;;;;20.68;44.36;100784.56;105729;1270;59644;-78
2022/07/11 08:31:48;;;;;;;3.70;1.20;;;;;;;20.85;43.50;100794.27;105812;1270;61510;-79
2022/07/11 08:34:17;;;;;;;6.60;1.40;;;;;;;21.02;43.27;100771.26;105858;1270;75179;-78
2022/07/11 08:36:45;;;;;;;3.40;1.40;;;;;;;21.37;43.18;100782.75;105777;1270;72235;-80
2022/07/11 08:39:14;;;;;;;6.00;1.30;;;;;;;21.47;42.69;100777.80;105916;1270;60216;-79
2022/07/11 08:41:44;;;;;;;5.10;1.70;;;;;;;21.63;42.59;100786.54;105878;1270;72727;-78
2022/07/11 08:44:15;;;;;;;2.10;1.40;;;;;;;21.60;42.45;100790.25;105820;1272;59705;-79
2022/07/11 08:46:44;;;;;;;2.80;1.50;;;;;;;21.61;41.74;100788.25;105894;1270;59662;-78
2022/07/11 08:49:13;;;;;;;2.60;1.20;;;;;;;21.57;42.02;100784.97;105949;1270;72619;-78
2022/07/11 08:51:42;;;;;;;15.50;1.80;;;;;;;21.55;41.85;100788.58;105748;1270;62221;-78
2022/07/11 08:54:12;;;;;;;4.30;1.10;;;;;;;21.47;41.92;100783.56;105726;1270;59349;-80
2022/07/11 08:56:44;;;;;;;4.30;1.10;;;;;;;21.52;41.97;100786.65;105870;1270;64179;-79
2022/07/11 08:59:19;;;;;;;3.20;1.00;;;;;;;21.49;40.92;100794.12;105697;1272;59765;-79
2022/07/11 09:01:51;;;;;;;4.80;1.40;;;;;;;21.42;40.32;100792.20;105889;1270;61965;-77
2022/07/11 09:04:23;;;;;;;11.40;1.40;;;;;;;21.59;40.81;100788.17;105745;1270;64545;-78
2022/07/11 09:06:52;;;;;;;9.00;1.50;;;;;;;21.86;40.21;100787.36;105751;1273;70654;-77
2022/07/11 09:09:21;;;;;;;4.00;1.10;;;;;;;21.91;39.55;100787.48;105816;1270;70734;-78
2022/07/11 09:11:53;;;;;;;2.00;1.00;;;;;;;21.91;39.05;100790.30;105656;1270;74503;-78
2022/07/11 09:14:35;;;;;;;5.70;1.20;;;;;;;21.85;39.09;100783.38;105793;1270;60948;-78
2022/07/11 09:17:06;;;;;;;2.80;0.90;;;;;;;21.89;39.47;100773.52;105680;1272;59693;-80
2022/07/11 09:19:39;;;;;;;3.70;1.00;;;;;;;22.00;38.99;100784.90;105822;1270;71754;-78
2022/07/11 09:25:31;;;;;;;2.50;0.80;;;;;;;21.88;38.18;100775.77;105898;1270;60705;-77
2022/07/11 09:28:05;;;;;;;5.20;1.10;;;;;;;21.90;38.46;100766.84;105920;1270;63422;-79
2022/07/11 09:30:39;;;;;;;1.70;1.00;;;;;;;21.86;38.69;100767.60;106155;1270;60571;-78
2022/07/11 09:33:12;;;;;;;2.20;0.90;;;;;;;22.16;38.07;100769.83;105812;1270;59491;-78
2022/07/11 09:35:45;;;;;;;1.90;1.00;;;;;;;22.39;37.06;100767.75;105635;1270;63000;-78
2022/07/11 09:38:21;;;;;;;;;;;;;;;22.48;36.63;100755.16;105904;1270;61641;-76
2022/07/11 09:40:50;;;;;;;6.00;1.30;;;;;;;22.74;36.69;100761.83;105795;1270;69864;-79
2022/07/11 09:43:26;;;;;;;6.90;1.00;;;;;;;22.81;36.61;100772.00;105612;1273;64390;-78
2022/07/11 09:46:05;;;;;;;7.40;1.20;;;;;;;22.75;36.84;100763.86;105968;1270;61443;-74
2022/07/11 09:48:34;;;;;;;1.80;1.10;;;;;;;22.71;36.73;100773.93;105618;1270;61724;-76
2022/07/11 09:51:04;;;;;;;2.50;0.80;;;;;;;22.61;37.16;100771.94;105579;1270;75768;-75
2022/07/11 09:53:33;;;;;;;1.90;0.90;;;;;;;22.60;36.61;100769.05;105657;1270;61845;-70
2022/07/11 09:56:06;;;;;;;1.30;0.90;;;;;;;22.60;36.89;100761.85;105698;1269;70818;-72
2022/07/11 09:58:35;;;;;;;1.00;0.90;;;;;;;22.64;36.37;100783.65;105826;1270;73443;-72
2022/07/11 10:01:04;;;;;;;2.70;0.90;;;;;;;22.56;36.47;100781.34;105844;1270;60449;-70
2022/07/11 10:03:34;;;;;;;6.30;1.00;;;;;;;22.51;36.60;100776.88;105850;1270;59619;-74
2022/07/11 10:06:24;;;;;;;3.20;1.00;;;;;;;22.39;36.12;100774.07;105672;1270;75571;-74
2022/07/11 10:08:53;;;;;;;5.60;1.10;;;;;;;22.43;35.91;100770.59;105704;1270;61289;-73
2022/07/11 10:11:22;;;;;;;2.70;0.90;;;;;;;22.52;35.95;100764.23;105710;1270;59950;-76
2022/07/11 10:13:51;;;;;;;6.00;1.10;;;;;;;22.58;35.60;100768.30;105702;1270;73427;-73
2022/07/11 10:16:43;;;;;;;2.50;0.90;;;;;;;22.69;34.96;100768.63;105572;1269;61796;-74
2022/07/11 10:19:43;;;;;;;1.20;0.90;;;;;;;22.81;34.48;100752.81;105647;1270;61998;-72
2022/07/11 10:23:08;;;;;;;2.00;1.10;;;;;;;22.81;34.31;100752.32;107038;1269;64740;-87
2022/07/11 10:26:33;;;;;;;2.10;0.80;;;;;;;22.88;33.97;100754.09;107935;1264;61023;-83
2022/07/11 10:29:50;;;;;;;3.90;0.80;;;;;;;23.13;32.44;100752.20;107224;1270;60887;-81
2022/07/11 10:33:05;;;;;;;2.20;1.00;;;;;;;23.24;32.29;100756.76;106789;1273;63404;-81
2022/07/11 10:35:59;;;;;;;2.00;0.90;;;;;;;23.23;32.73;100751.95;106806;1273;57977;-81
2022/07/11 10:39:53;;;;;;;2.40;1.10;;;;;;;23.51;32.08;100738.05;107431;1273;57890;-84
2022/07/11 10:44:11;;;;;;;8.20;1.10;;;;;;;24.12;32.34;100742.41;107625;1273;73630;-84
2022/07/11 10:46:47;;;;;;;5.10;1.10;;;;;;;24.45;31.77;100754.27;106825;1273;63045;-84
2022/07/11 10:50:03;;;;;;;2.00;0.90;;;;;;;24.46;30.69;100748.70;106347;1273;61374;-81
2022/07/11 10:52:36;;;;;;;5.20;1.40;;;;;;;24.17;30.94;100745.84;105922;1275;62693;-83
2022/07/11 10:55:46;;;;;;;1.60;1.00;;;;;;;24.17;30.95;100745.52;106079;1273;59190;-83
2022/07/11 10:58:32;;;;;;;3.60;0.90;;;;;;;24.65;30.45;100745.13;106548;1273;61836;-82
2022/07/11 11:01:16;;;;;;;2.30;0.80;;;;;;;24.81;30.49;100764.26;106828;1276;73686;-82
2022/07/11 11:03:49;;;;;;;3.90;1.20;;;;;;;24.91;29.91;100761.86;106288;1274;61418;-82
2022/07/11 11:06:57;;;;;;;2.50;0.90;;;;;;;24.93;29.69;100771.52;106066;1273;59464;-83
2022/07/11 11:09:39;;;;;;;3.40;1.10;;;;;;;24.72;30.02;100761.49;106267;1273;63202;-84
2022/07/11 11:12:10;;;;;;;2.20;1.20;;;;;;;24.84;30.52;100759.05;107363;1273;59534;-86
2022/07/11 11:14:39;;;;;;;2.50;1.10;;;;;;;24.51;30.80;100765.02;107413;1272;60687;-85
2022/07/11 11:17:37;;;;;;;3.10;1.10;;;;;;;24.26;30.75;100768.23;107505;1270;73704;-87
2022/07/11 11:20:07;;;;;;;5.10;1.60;;;;;;;24.14;31.23;100761.88;107183;1273;72614;-85
2022/07/11 11:22:38;;;;;;;2.80;1.00;;;;;;;24.42;30.62;100760.14;107181;1269;69720;-85
2022/07/11 11:25:09;;;;;;;3.80;1.00;;;;;;;24.28;30.16;100759.62;107882;1260;72813;-86
2022/07/11 11:28:04;;;;;;;1.70;1.10;;;;;;;24.63;29.52;100763.94;107849;1269;61132;-86
2022/07/11 11:30:33;;;;;;;3.60;1.10;;;;;;;25.12;29.54;100776.36;107373;1270;57902;-87
2022/07/11 11:33:16;;;;;;;4.60;1.10;;;;;;;25.47;29.00;100771.65;107630;1269;63111;-85
2022/07/11 11:36:02;;;;;;;1.50;0.90;;;;;;;25.65;28.51;100779.41;107472;1270;61006;-86
2022/07/11 11:38:48;;;;;;;2.20;0.90;;;;;;;25.59;28.67;100775.39;107952;1259;69935;31
2022/07/11 11:42:40;;;;;;;8.10;1.60;;;;;;;25.46;28.52;100772.69;108162;1260;64482;31
2022/07/11 11:45:11;;;;;;;2.10;0.90;;;;;;;25.05;29.64;100772.29;108331;1259;60719;-85
2022/07/11 11:47:48;;;;;;;2.50;0.90;;;;;;;24.71;29.56;100770.06;107816;1263;58538;-84
2022/07/11 11:50:19;;;;;;;5.20;1.10;;;;;;;24.71;28.41;100766.17;107756;1268;65056;-89
2022/07/11 11:52:48;;;;;;;1.40;0.70;;;;;;;24.83;28.23;100763.36;107625;1269;61153;-85